Aérodrome :







RETROUVEZ-NOUS SUR...

 
LOGIN :

S'inscrire | Disclaimer

   EN    FR    IT 

 









Légende :    VFR   VFR Marginal   IFR   IFR Intensif   IFR Très Intensif
Visi : 
Plafond : 
>= 8 km
>= 3000ft
5 à 8 km
1000 à 3000 ft
1500m à 5 km
500 à 1000 ft
800 à 1500m
200 à 500 ft
< 800m
< 200 ft
Symboles :   Orages  Brouillard  Fortes neiges  Fortes précipitations  Vent > 20 kt






- Altitude de l'aérodrome : 1009 ft
- Code IATA : ORH


KORH - Worcester Regional

DERNIER METAR :
  • 081154Z 05004KT 9SM -RA OVC030 05/03 A2954 RMK AO2 SLP006 P0002 60012 70012 T00500028 10100 20050 53002

METARs EXPIRÉS :
  • 081121Z 03006KT 6SM -RA BR OVC029 05/03 A2953 RMK AO2 P0001 T00500028
  • 081054Z 04006KT 10SM -RA OVC035 06/03 A2952 RMK AO2 SLP001 P0002 T00560028
  • 080954Z 04006KT 4SM RA BR SCT027 BKN036 OVC048 06/04 A2953 RMK AO2 SLP003 P0005 T00610039

TAF KORH
Valide du 08 à 12h jusqu'au 09 à 12h UTC


081127Z 0812/0912 03006KT P6SM VCSH OVC035
FM081300 03006KT P6SM VCSH OVC030
FM081500 02005KT P6SM OVC030
FM081700 02004KT P6SM BKN040
FM090600 19004KT P6SM BKN025
FM091100 18006KT P6SM OVC008



MET'MAP, la Météo Aéronautique d'un coup d'oeil ! - Copyright ORBIFLY Décembre 2007 - Disclaimer

ORBIFLY MET'MAP TEAM :

Programmation & Développement : Alexandra Zaïnal
Sur une idée originale de : Baudouin d'Aumeries
Assistance à la programmation : Marc-Olivier Méhu
Soutien technique & logistique : Manuel Goepfert

Contact : metmap@orbifly.com




SOURCES & CREDITS :

   NOAA